Time;durP1;ratioP1;P1;durP2;ratioP2;P2;SDS_P1;SDS_P2;PMS_P1;PMS_P2;Temp;Humidity;BMP_temperature;BMP_pressure;BME280_temperature;BME280_humidity;BME280_pressure;Samples;Min_cycle;Max_cycle;Signal;HPM_P1;HPM_P2
2024/01/27 00:01:20;;;;;;;7.37;2.08;;;0.70;99.90;;;;;;7341470;32;20133;-57
2024/01/27 00:05:22;;;;;;;10.75;2.20;;;0.60;99.90;;;;;;7343248;32;20540;-56
2024/01/27 00:09:24;;;;;;;5.75;1.85;;;0.60;99.90;;;;;;7342439;32;20158;-58
2024/01/27 00:13:25;;;;;;;12.90;2.72;;;0.50;99.90;;;;;;7343208;32;20114;-56
2024/01/27 00:17:27;;;;;;;6.90;2.33;;;0.50;99.90;;;;;;7343222;32;20592;-57
2024/01/27 00:21:29;;;;;;;8.63;2.15;;;0.50;99.90;;;;;;7336136;32;20493;-57
2024/01/27 00:25:31;;;;;;;10.50;2.70;;;0.40;99.90;;;;;;7341601;32;20166;-57
2024/01/27 00:29:33;;;;;;;7.30;2.30;;;0.40;99.90;;;;;;7345603;32;20423;-57
2024/01/27 00:33:36;;;;;;;5.75;1.60;;;0.20;99.90;;;;;;7342417;32;20181;-56
2024/01/27 00:37:38;;;;;;;9.20;2.12;;;0.30;99.90;;;;;;7340768;32;20273;-57
2024/01/27 00:41:39;;;;;;;10.85;2.15;;;0.30;99.90;;;;;;7348755;32;20219;-57
2024/01/27 00:45:41;;;;;;;8.60;2.05;;;0.30;99.90;;;;;;7339805;32;20143;-57
2024/01/27 00:49:43;;;;;;;9.20;2.22;;;0.30;99.90;;;;;;7346461;32;20529;-56
2024/01/27 00:53:45;;;;;;;10.95;1.90;;;0.30;99.90;;;;;;7343504;32;20265;-56
2024/01/27 00:57:46;;;;;;;6.87;1.85;;;0.20;99.90;;;;;;7345297;32;20138;-56
2024/01/27 01:01:49;;;;;;;5.97;1.90;;;0.20;99.90;;;;;;7340453;32;20186;-55
2024/01/27 01:05:51;;;;;;;8.02;2.40;;;0.20;99.90;;;;;;7344742;32;20142;-57
2024/01/27 01:09:52;;;;;;;11.63;2.60;;;0.30;99.90;;;;;;7342564;32;20116;-56
2024/01/27 01:13:54;;;;;;;11.45;2.08;;;0.30;99.90;;;;;;7345739;32;20402;-57
2024/01/27 01:17:56;;;;;;;7.70;2.05;;;0.20;99.90;;;;;;7343953;32;20275;-56
2024/01/27 01:21:58;;;;;;;12.37;2.95;;;0.20;99.90;;;;;;7346630;32;20865;-57
2024/01/27 01:25:59;;;;;;;13.73;2.53;;;0.20;99.90;;;;;;7340169;32;20115;-56
2024/01/27 01:30:01;;;;;;;7.35;2.03;;;0.20;99.90;;;;;;7344245;32;20214;-56
2024/01/27 01:34:03;;;;;;;8.60;2.03;;;0.20;99.90;;;;;;7341222;32;20104;-56
2024/01/27 01:38:05;;;;;;;13.20;2.37;;;0.20;99.90;;;;;;7344830;32;20617;-56
2024/01/27 01:42:06;;;;;;;9.27;2.10;;;0.20;99.90;;;;;;7336006;32;20515;-56
2024/01/27 01:46:08;;;;;;;6.12;2.10;;;0.20;99.90;;;;;;7340170;32;20264;-57
2024/01/27 01:50:11;;;;;;;8.40;2.60;;;0.10;99.90;;;;;;7335166;32;20111;-56
2024/01/27 01:54:13;;;;;;;12.37;2.92;;;0.10;99.90;;;;;;7339510;32;20119;-56
2024/01/27 01:58:14;;;;;;;6.85;2.33;;;0.10;99.90;;;;;;7335505;32;20371;-56
2024/01/27 02:02:16;;;;;;;8.82;2.42;;;0.10;99.90;;;;;;7337911;32;20111;-57
2024/01/27 02:06:18;;;;;;;8.30;2.87;;;0.00;99.90;;;;;;7346814;32;20107;-58
2024/01/27 02:10:20;;;;;;;11.45;2.78;;;0.00;99.90;;;;;;7342772;32;20106;-57
2024/01/27 02:14:25;;;;;;;5.18;2.45;;;-0.10;99.90;;;;;;7337819;32;20216;-57
2024/01/27 02:18:26;;;;;;;10.20;2.78;;;-0.10;99.90;;;;;;7343197;32;20565;-56
2024/01/27 02:22:28;;;;;;;12.18;2.00;;;-0.10;99.90;;;;;;7339271;32;20210;-55
2024/01/27 02:26:30;;;;;;;9.27;2.17;;;-0.10;99.90;;;;;;7340812;32;20138;-56
2024/01/27 02:30:32;;;;;;;7.40;2.17;;;-0.10;99.90;;;;;;7336855;32;20150;-55
2024/01/27 02:34:34;;;;;;;7.30;2.08;;;-0.20;99.90;;;;;;7339042;32;20112;-56
2024/01/27 02:38:36;;;;;;;9.57;2.20;;;-0.20;99.90;;;;;;7343761;32;20438;-56
2024/01/27 02:42:38;;;;;;;6.40;2.10;;;-0.20;99.90;;;;;;7339029;32;20123;-57
2024/01/27 02:46:40;;;;;;;5.28;1.58;;;-0.10;99.90;;;;;;7341095;32;20166;-56
2024/01/27 02:50:42;;;;;;;12.75;2.25;;;-0.10;99.90;;;;;;7334980;32;20212;-55
2024/01/27 02:54:44;;;;;;;6.97;1.83;;;-0.20;99.90;;;;;;7336292;32;20202;-57
2024/01/27 02:58:46;;;;;;;8.75;2.37;;;-0.20;99.90;;;;;;7338004;32;20161;-57
2024/01/27 03:02:48;;;;;;;6.90;2.17;;;-0.20;99.90;;;;;;7342373;32;20446;-56
2024/01/27 03:06:49;;;;;;;10.27;2.40;;;-0.20;99.90;;;;;;7344493;32;20099;-56
2024/01/27 03:10:51;;;;;;;10.52;2.10;;;-0.20;99.90;;;;;;7343699;32;20201;-57
2024/01/27 03:14:54;;;;;;;10.98;2.47;;;-0.20;99.90;;;;;;7343649;32;20111;-56
2024/01/27 03:18:56;;;;;;;7.50;1.87;;;-0.30;99.90;;;;;;7335219;32;20205;-57
2024/01/27 03:22:58;;;;;;;8.05;2.35;;;-0.30;99.90;;;;;;7338421;32;20198;-56
2024/01/27 03:27:00;;;;;;;9.40;2.10;;;-0.30;99.90;;;;;;7332485;32;20502;-56
2024/01/27 03:31:02;;;;;;;6.82;1.80;;;-0.30;99.90;;;;;;7338237;32;20107;-55
2024/01/27 03:35:04;;;;;;;6.75;2.30;;;-0.30;99.90;;;;;;7336166;32;20488;-58
2024/01/27 03:39:07;;;;;;;8.93;2.50;;;-0.30;99.90;;;;;;7337776;32;20570;-58
2024/01/27 03:43:09;;;;;;;6.68;2.30;;;-0.30;99.90;;;;;;7338196;32;20583;-55
2024/01/27 03:47:10;;;;;;;15.68;2.28;;;-0.30;99.90;;;;;;7342906;32;20114;-57
2024/01/27 03:51:12;;;;;;;7.43;1.67;;;-0.30;99.90;;;;;;7345858;32;20221;-57
2024/01/27 03:55:14;;;;;;;6.40;1.92;;;-0.40;99.90;;;;;;7344721;32;20215;-56
2024/01/27 03:59:16;;;;;;;11.00;2.12;;;-0.40;99.90;;;;;;7343913;32;20159;-57
2024/01/27 04:03:18;;;;;;;7.15;2.25;;;-0.40;99.90;;;;;;7343852;32;20360;-57
2024/01/27 04:07:20;;;;;;;13.80;2.25;;;-0.40;99.90;;;;;;7343895;32;20766;-56
2024/01/27 04:11:22;;;;;;;6.43;2.17;;;-0.40;99.90;;;;;;7346166;32;20180;-57
2024/01/27 04:15:25;;;;;;;16.90;2.72;;;-0.40;99.90;;;;;;7342128;32;20248;-57
2024/01/27 04:19:26;;;;;;;9.23;2.53;;;-0.50;99.90;;;;;;7339077;32;20157;-58
2024/01/27 04:23:28;;;;;;;10.02;2.37;;;-0.50;99.90;;;;;;7342607;32;20250;-57
2024/01/27 04:27:30;;;;;;;11.48;2.33;;;-0.40;99.90;;;;;;7339550;32;20373;-57
2024/01/27 04:31:32;;;;;;;6.20;2.03;;;-0.40;99.90;;;;;;7346009;32;20167;-56
2024/01/27 04:35:34;;;;;;;12.13;2.80;;;-0.40;99.90;;;;;;7345006;32;20548;-57
2024/01/27 04:39:37;;;;;;;8.77;2.60;;;-0.40;99.90;;;;;;7343380;32;20127;-57
2024/01/27 04:43:39;;;;;;;8.45;2.70;;;-0.40;99.90;;;;;;7340870;32;20446;-57
2024/01/27 04:47:41;;;;;;;8.10;1.98;;;-0.40;99.90;;;;;;7341999;32;20247;-55
2024/01/27 04:51:43;;;;;;;8.23;2.58;;;-0.40;99.90;;;;;;7345524;32;21112;-56
2024/01/27 04:55:44;;;;;;;8.30;2.40;;;-0.50;99.90;;;;;;7341432;32;20317;-56
2024/01/27 04:59:46;;;;;;;6.40;2.67;;;-0.50;99.90;;;;;;7333559;32;20107;-56
2024/01/27 05:03:48;;;;;;;8.70;2.95;;;-0.50;99.90;;;;;;7339972;32;20111;-60
2024/01/27 05:07:50;;;;;;;6.50;2.53;;;-0.50;99.90;;;;;;7340984;32;20111;-57
2024/01/27 05:11:53;;;;;;;11.65;2.72;;;-0.50;99.90;;;;;;7339595;32;20196;-58
2024/01/27 05:15:55;;;;;;;11.12;2.97;;;-0.60;99.90;;;;;;7340368;32;20184;-56
2024/01/27 05:19:58;;;;;;;10.05;3.15;;;-0.50;99.90;;;;;;7340972;32;20128;-55
2024/01/27 05:23:59;;;;;;;12.18;2.83;;;-0.50;99.90;;;;;;7336925;32;20238;-55
2024/01/27 05:28:02;;;;;;;10.43;3.10;;;-0.50;99.90;;;;;;7336396;32;20140;-55
2024/01/27 05:32:03;;;;;;;11.43;3.12;;;-0.50;99.90;;;;;;7340640;32;20111;-56
2024/01/27 05:36:06;;;;;;;15.48;3.15;;;-0.50;99.90;;;;;;7343387;32;20369;-56
2024/01/27 05:40:08;;;;;;;11.18;2.47;;;-0.50;99.90;;;;;;7342747;32;20233;-57
2024/01/27 05:44:09;;;;;;;6.05;2.62;;;-0.60;99.90;;;;;;7345949;32;20190;-58
2024/01/27 05:48:11;;;;;;;12.45;3.10;;;-0.60;99.90;;;;;;7334068;32;20348;-56
2024/01/27 05:52:13;;;;;;;7.62;2.80;;;-0.60;99.90;;;;;;7333602;32;20638;-55
2024/01/27 05:56:26;;;;;;;10.63;2.90;;;-0.60;99.90;;;;;;7342031;32;20138;-57
2024/01/27 06:00:28;;;;;;;10.88;2.50;;;-0.60;99.90;;;;;;7338750;32;20134;-56
2024/01/27 06:04:31;;;;;;;9.60;3.10;;;-0.60;99.90;;;;;;7337943;32;20288;-57
2024/01/27 06:08:33;;;;;;;6.72;2.87;;;-0.60;99.90;;;;;;7340047;32;20517;-55
2024/01/27 06:12:35;;;;;;;11.85;3.17;;;-0.60;99.90;;;;;;7346945;32;20178;-57
2024/01/27 06:16:37;;;;;;;8.68;3.35;;;-0.60;99.90;;;;;;7341308;32;20107;-56
2024/01/27 06:20:40;;;;;;;8.85;2.97;;;-0.60;99.90;;;;;;7333443;32;20184;-56
2024/01/27 06:24:43;;;;;;;9.48;2.97;;;-0.60;99.90;;;;;;7339065;32;20361;-55
2024/01/27 06:28:46;;;;;;;14.32;3.90;;;-0.70;99.90;;;;;;7341646;32;20112;-57
2024/01/27 06:32:47;;;;;;;12.37;3.12;;;-0.60;99.90;;;;;;7336984;32;20139;-56
2024/01/27 06:36:50;;;;;;;10.95;3.12;;;-0.70;99.90;;;;;;7335602;32;20581;-56
2024/01/27 06:40:51;;;;;;;11.60;3.45;;;-0.60;99.90;;;;;;7336213;32;20221;-57
2024/01/27 06:44:53;;;;;;;13.13;3.10;;;-0.70;99.90;;;;;;7333917;32;20103;-56
2024/01/27 06:48:55;;;;;;;15.07;4.10;;;-0.70;99.90;;;;;;7335549;32;20454;-55
2024/01/27 06:52:57;;;;;;;12.95;3.28;;;-0.70;99.90;;;;;;7337151;32;20370;-56
2024/01/27 06:57:00;;;;;;;14.90;3.83;;;-0.80;99.90;;;;;;7346925;32;20164;-57
2024/01/27 07:01:02;;;;;;;10.05;3.17;;;-0.80;99.90;;;;;;7342466;32;20111;-56
2024/01/27 07:05:05;;;;;;;8.70;3.28;;;-0.80;99.90;;;;;;7344216;32;20115;-56
2024/01/27 07:09:09;;;;;;;13.30;3.05;;;-0.80;99.90;;;;;;7344616;32;20169;-56
2024/01/27 07:13:11;;;;;;;10.30;2.87;;;-0.80;99.90;;;;;;7342150;32;20651;-57
2024/01/27 07:17:13;;;;;;;7.37;3.40;;;-0.70;99.90;;;;;;7342580;32;20592;-56
2024/01/27 07:21:18;;;;;;;8.73;3.33;;;-0.80;99.90;;;;;;7342659;32;20198;-56
2024/01/27 07:25:20;;;;;;;9.15;3.12;;;-0.80;99.90;;;;;;7349829;32;20211;-58
2024/01/27 07:29:22;;;;;;;9.63;3.17;;;-0.70;99.90;;;;;;7345884;32;20578;-56
2024/01/27 07:33:23;;;;;;;15.30;3.35;;;-0.70;99.90;;;;;;7343105;32;20174;-57
2024/01/27 07:37:25;;;;;;;11.63;2.92;;;-0.70;99.90;;;;;;7345015;32;20611;-57
2024/01/27 07:41:27;;;;;;;12.55;3.05;;;-0.60;99.90;;;;;;7342995;32;20196;-58
2024/01/27 07:45:33;;;;;;;12.57;3.30;;;-0.70;99.90;;;;;;7346278;32;20205;-58
2024/01/27 07:49:35;;;;;;;12.18;3.37;;;-0.60;99.90;;;;;;7340294;32;20182;-57
2024/01/27 07:53:37;;;;;;;19.12;4.22;;;-0.50;99.90;;;;;;7341352;32;20123;-58
2024/01/27 07:57:38;;;;;;;12.15;3.75;;;-0.50;99.90;;;;;;7344870;32;20505;-56
2024/01/27 08:01:41;;;;;;;11.15;3.53;;;-0.50;99.90;;;;;;7338324;32;20603;-55
2024/01/27 08:05:42;;;;;;;10.10;3.70;;;-0.40;99.90;;;;;;7342995;32;20121;-57
2024/01/27 08:09:44;;;;;;;9.60;3.50;;;-0.30;99.90;;;;;;7341511;32;21059;-58
2024/01/27 08:13:46;;;;;;;10.88;3.20;;;-0.30;99.90;;;;;;7342290;32;20131;-59
2024/01/27 08:17:48;;;;;;;10.88;3.12;;;-0.30;99.90;;;;;;7344021;32;20201;-57
2024/01/27 08:21:50;;;;;;;12.82;3.83;;;-0.10;99.90;;;;;;7342437;32;20255;-57
2024/01/27 08:25:52;;;;;;;12.48;3.85;;;0.00;99.90;;;;;;7347744;32;20155;-60
2024/01/27 08:29:54;;;;;;;16.12;4.18;;;0.10;99.90;;;;;;7342675;32;20144;-57
2024/01/27 08:33:59;;;;;;;19.70;3.85;;;0.50;99.90;;;;;;7342036;32;20131;-57
2024/01/27 08:38:01;;;;;;;20.25;4.05;;;0.70;99.90;;;;;;7344972;32;20216;-58
2024/01/27 08:42:02;;;;;;;16.98;4.10;;;0.80;99.90;;;;;;7346065;32;20534;-58
2024/01/27 08:46:04;;;;;;;14.52;3.60;;;0.90;99.90;;;;;;7346305;32;20209;-57
2024/01/27 08:50:07;;;;;;;15.98;4.07;;;1.00;99.90;;;;;;7345484;32;20172;-57
2024/01/27 08:54:08;;;;;;;13.35;3.37;;;1.10;99.90;;;;;;7343083;32;20249;-58
2024/01/27 08:58:10;;;;;;;13.98;3.87;;;1.40;99.90;;;;;;7343965;32;20222;-57
2024/01/27 09:02:12;;;;;;;13.68;4.05;;;1.50;99.90;;;;;;7332968;32;20513;-58
2024/01/27 09:06:14;;;;;;;20.27;3.75;;;1.50;99.90;;;;;;7341872;32;20230;-56
2024/01/27 09:10:16;;;;;;;16.12;3.47;;;1.70;99.90;;;;;;7341424;32;20228;-58
2024/01/27 09:14:18;;;;;;;12.93;3.12;;;1.80;99.90;;;;;;7334288;32;20205;-58
2024/01/27 09:18:20;;;;;;;25.30;3.70;;;1.90;99.90;;;;;;7340368;32;20131;-57
2024/01/27 09:22:24;;;;;;;16.73;3.85;;;2.00;99.90;;;;;;7341187;32;20135;-57
2024/01/27 09:26:26;;;;;;;16.55;3.90;;;2.10;99.90;;;;;;7338207;32;20114;-58
2024/01/27 09:30:28;;;;;;;11.35;3.67;;;2.20;99.90;;;;;;7336339;32;20275;-67
2024/01/27 09:34:33;;;;;;;12.70;3.10;;;2.50;99.90;;;;;;7329336;32;20464;-57
2024/01/27 09:38:35;;;;;;;8.13;3.17;;;2.40;99.90;;;;;;7341412;32;20661;-57
2024/01/27 09:42:39;;;;;;;12.15;3.10;;;2.60;99.90;;;;;;7342232;32;20156;-59
2024/01/27 09:46:41;;;;;;;13.90;3.08;;;2.60;99.90;;;;;;7338443;32;20223;-59
2024/01/27 09:50:47;;;;;;;13.18;3.17;;;2.80;99.90;;;;;;7341945;32;20202;-58
2024/01/27 09:54:49;;;;;;;16.27;4.93;;;2.90;99.90;;;;;;7334893;32;20127;-58
2024/01/27 09:58:51;;;;;;;13.40;3.22;;;3.00;99.90;;;;;;7340790;32;20261;-59
2024/01/27 10:02:54;;;;;;;15.02;3.50;;;3.00;99.90;;;;;;7344782;32;20213;-58
2024/01/27 10:06:58;;;;;;;14.20;3.35;;;3.10;99.90;;;;;;7339173;32;20241;-58
2024/01/27 10:11:04;;;;;;;12.75;3.30;;;3.30;99.90;;;;;;7331489;32;20111;-59
2024/01/27 10:15:06;;;;;;;15.57;3.35;;;3.30;99.90;;;;;;7342278;32;20469;-58
2024/01/27 10:19:15;;;;;;;14.27;3.67;;;3.60;99.90;;;;;;7334654;32;20329;-58
2024/01/27 10:23:17;;;;;;;17.33;3.62;;;3.80;99.90;;;;;;7338094;32;20672;-58
2024/01/27 10:27:19;;;;;;;12.57;3.08;;;4.00;99.90;;;;;;7337168;32;20168;-58
2024/01/27 10:31:30;;;;;;;17.52;3.65;;;4.10;99.90;;;;;;7338305;32;20214;-56
2024/01/27 10:35:31;;;;;;;10.65;3.17;;;4.30;99.90;;;;;;7336406;32;20519;-58
2024/01/27 10:39:33;;;;;;;13.48;4.10;;;4.30;99.90;;;;;;7339662;32;20183;-58
2024/01/27 10:43:36;;;;;;;13.82;3.45;;;4.50;99.90;;;;;;7344883;32;20133;-57
2024/01/27 10:47:39;;;;;;;11.38;3.67;;;4.60;99.90;;;;;;7332377;32;20520;-59
2024/01/27 10:52:01;;;;;;;13.45;3.17;;;4.70;99.90;;;;;;7347540;32;20194;-59
2024/01/27 10:56:10;;;;;;;15.63;4.93;;;4.80;99.90;;;;;;7344921;32;20198;-59
2024/01/27 11:00:14;;;;;;;12.98;3.87;;;4.80;99.90;;;;;;7341829;32;20258;-58
2024/01/27 11:04:16;;;;;;;14.52;3.25;;;4.90;99.90;;;;;;7335745;32;20131;-58
2024/01/27 11:08:19;;;;;;;19.15;3.85;;;5.00;99.90;;;;;;7339645;32;20142;-59
2024/01/27 11:12:22;;;;;;;14.55;3.45;;;5.10;99.90;;;;;;7349936;32;20490;-59
2024/01/27 11:16:24;;;;;;;15.27;3.85;;;5.20;99.90;;;;;;7343533;32;20161;-59
2024/01/27 11:20:26;;;;;;;9.73;3.08;;;5.30;99.90;;;;;;7330203;32;20120;-59
2024/01/27 11:24:28;;;;;;;14.52;2.80;;;5.40;99.90;;;;;;7347306;32;20485;-59
2024/01/27 11:28:30;;;;;;;13.25;3.40;;;5.50;99.90;;;;;;7344144;32;20161;-58
2024/01/27 11:32:32;;;;;;;15.48;3.72;;;5.50;99.90;;;;;;7345389;32;20586;-58
2024/01/27 11:36:35;;;;;;;16.90;3.30;;;5.70;99.90;;;;;;7346898;32;20217;-58
2024/01/27 11:40:49;;;;;;;17.70;3.60;;;5.70;99.90;;;;;;7342055;32;20676;-58
2024/01/27 11:44:51;;;;;;;14.70;3.45;;;5.80;99.90;;;;;;7342299;32;20232;-57
2024/01/27 11:48:53;;;;;;;11.35;2.83;;;5.90;99.90;;;;;;7343722;32;20422;-58
2024/01/27 11:52:56;;;;;;;16.10;3.75;;;5.70;99.90;;;;;;7343746;32;20589;-57
2024/01/27 11:56:58;;;;;;;17.85;3.58;;;5.90;99.90;;;;;;7340976;32;20143;-58
2024/01/27 12:01:00;;;;;;;10.35;3.37;;;6.00;99.90;;;;;;7347878;32;20163;-58
2024/01/27 12:05:02;;;;;;;15.15;3.72;;;6.00;99.90;;;;;;7337171;32;20254;-58
2024/01/27 12:09:11;;;;;;;13.07;3.35;;;6.10;99.90;;;;;;7348045;32;20129;-57
2024/01/27 12:13:16;;;;;;;21.20;3.65;;;6.10;99.90;;;;;;7348284;32;20125;-57
2024/01/27 12:17:19;;;;;;;13.75;3.35;;;6.30;99.90;;;;;;7340854;32;20195;-59
2024/01/27 12:21:21;;;;;;;16.20;3.45;;;6.40;99.90;;;;;;7349246;32;20184;-57
2024/01/27 12:25:23;;;;;;;14.10;3.35;;;6.50;99.90;;;;;;7341103;32;20154;-58
2024/01/27 12:29:25;;;;;;;17.98;3.75;;;6.50;99.90;;;;;;7344430;32;20206;-57
2024/01/27 12:33:27;;;;;;;16.08;3.65;;;6.50;99.90;;;;;;7335589;32;20103;-57
2024/01/27 12:37:30;;;;;;;11.52;3.47;;;6.50;99.90;;;;;;7339271;32;20108;-57
2024/01/27 12:41:33;;;;;;;15.23;3.62;;;6.70;99.90;;;;;;7342082;32;20315;-57
2024/01/27 12:45:35;;;;;;;10.00;3.65;;;6.70;99.90;;;;;;7336064;32;20217;-56
2024/01/27 12:49:38;;;;;;;14.80;3.35;;;6.80;99.90;;;;;;7341605;32;20155;-57
2024/01/27 12:53:43;;;;;;;14.32;3.17;;;6.80;99.90;;;;;;7340087;32;20119;-62
2024/01/27 12:57:46;;;;;;;10.65;3.00;;;6.80;99.90;;;;;;7335758;32;20595;-57
2024/01/27 13:01:48;;;;;;;13.23;3.22;;;6.80;99.90;;;;;;7338728;32;20202;-59
2024/01/27 13:05:50;;;;;;;12.77;3.00;;;6.90;99.90;;;;;;7337193;32;20227;-57
2024/01/27 13:09:51;;;;;;;13.27;3.10;;;6.90;99.90;;;;;;7347600;32;20218;-58
2024/01/27 13:13:54;;;;;;;14.95;3.72;;;6.90;99.90;;;;;;7342483;32;20194;-65
2024/01/27 13:17:56;;;;;;;18.77;3.35;;;7.00;99.90;;;;;;7336696;32;20236;-58
2024/01/27 13:21:58;;;;;;;15.13;3.20;;;7.10;99.90;;;;;;7342507;32;20169;-60
2024/01/27 13:25:59;;;;;;;16.30;3.03;;;7.10;99.90;;;;;;7346118;32;20116;-57
2024/01/27 13:30:19;;;;;;;10.63;2.70;;;7.10;99.90;;;;;;7339494;32;20115;-58
2024/01/27 13:34:21;;;;;;;12.80;3.05;;;7.10;99.90;;;;;;7338978;32;20260;-60
2024/01/27 13:38:23;;;;;;;17.45;2.85;;;7.20;99.90;;;;;;7340575;32;20116;-58
2024/01/27 13:42:25;;;;;;;12.27;2.78;;;7.30;99.90;;;;;;7333904;32;20234;-57
2024/01/27 13:46:27;;;;;;;8.77;2.55;;;7.50;99.90;;;;;;7341150;32;20211;-63
2024/01/27 13:50:31;;;;;;;12.85;3.08;;;7.60;99.90;;;;;;7342498;32;20501;-57
2024/01/27 13:54:34;;;;;;;13.00;2.65;;;7.80;99.90;;;;;;7336628;32;20116;-60
2024/01/27 13:58:36;;;;;;;11.70;2.45;;;7.80;99.90;;;;;;7339607;32;20107;-59
2024/01/27 14:02:38;;;;;;;12.35;2.17;;;8.00;99.90;;;;;;7343198;32;20139;-57
2024/01/27 14:06:40;;;;;;;7.20;1.80;;;8.30;99.90;;;;;;7341557;32;20209;-58
2024/01/27 14:10:43;;;;;;;10.73;2.28;;;8.10;99.90;;;;;;7343456;32;20218;-59
2024/01/27 14:14:45;;;;;;;11.65;2.05;;;8.30;99.90;;;;;;7340802;32;20583;-65
2024/01/27 14:18:46;;;;;;;11.65;2.05;;;8.40;99.90;;;;;;7345222;32;20562;-58
2024/01/27 14:22:48;;;;;;;13.07;1.67;;;8.50;99.90;;;;;;7340005;32;20747;-60
2024/01/27 14:26:50;;;;;;;8.65;2.12;;;8.50;99.90;;;;;;7344594;32;20213;-58
2024/01/27 14:30:52;;;;;;;11.63;2.40;;;8.50;99.90;;;;;;7341521;32;20216;-58
2024/01/27 14:34:54;;;;;;;11.07;2.60;;;8.40;99.90;;;;;;7341252;32;20119;-61
2024/01/27 14:38:56;;;;;;;8.43;2.70;;;8.20;99.90;;;;;;7338748;32;20143;-59
2024/01/27 14:42:58;;;;;;;9.55;2.50;;;8.00;99.90;;;;;;7341963;32;20107;-60
2024/01/27 14:46:59;;;;;;;10.93;2.55;;;8.00;99.90;;;;;;7342682;32;20118;-58
2024/01/27 14:51:01;;;;;;;8.23;1.90;;;7.90;99.90;;;;;;7340106;32;20643;-59
2024/01/27 14:55:04;;;;;;;10.35;2.20;;;7.80;99.90;;;;;;7347716;32;20133;-58
2024/01/27 14:59:07;;;;;;;13.10;1.75;;;7.70;99.90;;;;;;7345159;32;20198;-58
2024/01/27 15:03:09;;;;;;;12.55;2.00;;;7.60;99.90;;;;;;7343306;32;20123;-66
2024/01/27 15:07:15;;;;;;;9.20;1.98;;;7.40;99.90;;;;;;7335880;32;20126;-56
2024/01/27 15:11:17;;;;;;;13.13;2.28;;;7.40;99.90;;;;;;7341195;32;20122;-58
2024/01/27 15:15:19;;;;;;;10.48;2.30;;;7.30;99.90;;;;;;7348434;32;20164;-59
2024/01/27 15:19:21;;;;;;;14.05;1.95;;;7.30;99.90;;;;;;7338610;32;20161;-58
2024/01/27 15:23:25;;;;;;;8.82;1.87;;;7.10;99.90;;;;;;7341870;32;20187;-63
2024/01/27 15:27:26;;;;;;;7.50;1.60;;;7.00;99.90;;;;;;7344335;32;20568;-58
2024/01/27 15:31:28;;;;;;;13.82;1.98;;;6.90;99.90;;;;;;7340920;32;20237;-58
2024/01/27 15:35:32;;;;;;;9.95;1.67;;;6.60;99.90;;;;;;7346955;32;20135;-57
2024/01/27 15:39:34;;;;;;;9.15;1.70;;;6.50;99.90;;;;;;7344992;32;20151;-58
2024/01/27 15:43:36;;;;;;;13.07;1.85;;;6.30;99.90;;;;;;7346183;32;20126;-62
2024/01/27 15:47:37;;;;;;;7.03;1.45;;;6.20;99.90;;;;;;7352889;32;20130;-58
2024/01/27 15:51:40;;;;;;;11.98;1.87;;;6.20;99.90;;;;;;7338208;32;20161;-62
2024/01/27 15:55:42;;;;;;;6.57;1.92;;;6.10;99.90;;;;;;7340162;32;20218;-58
2024/01/27 15:59:43;;;;;;;5.95;1.80;;;5.90;99.90;;;;;;7351113;32;20230;-58
2024/01/27 16:03:45;;;;;;;7.70;1.70;;;5.60;99.90;;;;;;7354735;32;20508;-57
2024/01/27 16:07:47;;;;;;;9.13;1.75;;;5.40;99.90;;;;;;7345204;32;20554;-58
2024/01/27 16:11:49;;;;;;;7.93;1.98;;;5.20;99.90;;;;;;7341031;32;20211;-58
2024/01/27 16:15:50;;;;;;;10.20;2.00;;;5.00;99.90;;;;;;7338744;32;20183;-56
2024/01/27 16:19:53;;;;;;;8.73;2.12;;;4.70;99.90;;;;;;7344821;32;20139;-58
2024/01/27 16:23:56;;;;;;;6.97;2.25;;;4.50;99.90;;;;;;7345109;32;20154;-57
2024/01/27 16:27:58;;;;;;;13.13;4.07;;;4.30;99.90;;;;;;7337776;32;20558;-56
2024/01/27 16:32:00;;;;;;;10.20;4.40;;;4.10;99.90;;;;;;7340321;32;20172;-56
2024/01/27 16:36:02;;;;;;;19.23;7.22;;;4.00;99.90;;;;;;7341327;32;20100;-56
2024/01/27 16:40:04;;;;;;;19.75;6.95;;;3.80;99.90;;;;;;7342904;32;20134;-57
2024/01/27 16:44:06;;;;;;;12.40;6.03;;;3.70;99.90;;;;;;7341569;32;20562;-57
2024/01/27 16:48:08;;;;;;;16.73;8.15;;;3.50;99.90;;;;;;7335508;32;20310;-57
2024/01/27 16:52:10;;;;;;;12.80;6.40;;;3.40;99.90;;;;;;7340477;32;20127;-57
2024/01/27 16:56:12;;;;;;;13.25;5.50;;;3.20;99.90;;;;;;7343378;32;20115;-56
2024/01/27 17:00:14;;;;;;;16.80;5.32;;;3.10;99.90;;;;;;7343248;32;20636;-57
2024/01/27 17:04:16;;;;;;;10.90;4.72;;;3.00;99.90;;;;;;7341807;32;20129;-57
2024/01/27 17:08:18;;;;;;;11.43;3.67;;;2.80;99.90;;;;;;7342252;32;20119;-57
2024/01/27 17:12:19;;;;;;;13.45;3.35;;;2.80;99.90;;;;;;7341511;32;20284;-57
2024/01/27 17:16:22;;;;;;;9.70;3.28;;;2.70;99.90;;;;;;7340227;32;20162;-57
2024/01/27 17:20:24;;;;;;;8.90;4.60;;;2.50;99.90;;;;;;7345381;32;20115;-57
2024/01/27 17:24:26;;;;;;;13.40;4.70;;;2.40;99.90;;;;;;7344115;32;20555;-57
2024/01/27 17:28:28;;;;;;;9.30;3.47;;;2.30;99.90;;;;;;7345571;32;20229;-57
2024/01/27 17:32:30;;;;;;;10.18;3.12;;;2.20;99.90;;;;;;7341651;32;20361;-56
2024/01/27 17:36:32;;;;;;;8.95;3.45;;;2.10;99.90;;;;;;7342966;32;20227;-56
2024/01/27 17:40:35;;;;;;;8.02;2.70;;;2.00;99.90;;;;;;7326563;32;20107;-56
2024/01/27 17:44:36;;;;;;;7.50;3.72;;;2.00;99.90;;;;;;7344369;32;20119;-56
2024/01/27 17:48:39;;;;;;;6.45;3.40;;;1.90;99.90;;;;;;7345478;32;20176;-57
2024/01/27 17:52:41;;;;;;;8.88;3.67;;;1.80;99.90;;;;;;7335263;32;20150;-56
2024/01/27 17:56:43;;;;;;;6.87;2.72;;;1.70;99.90;;;;;;7337890;32;20556;-57
2024/01/27 18:00:45;;;;;;;6.70;2.37;;;1.70;99.90;;;;;;7334149;32;20107;-57
2024/01/27 18:04:47;;;;;;;11.52;3.35;;;1.60;99.90;;;;;;7342899;32;20342;-57
2024/01/27 18:08:49;;;;;;;11.23;3.00;;;1.60;99.90;;;;;;7336227;32;20202;-56
2024/01/27 18:12:50;;;;;;;8.00;3.50;;;1.50;99.90;;;;;;7347535;32;20580;-57
2024/01/27 18:16:52;;;;;;;10.27;3.37;;;1.40;99.90;;;;;;7331311;32;20538;-57
2024/01/27 18:20:54;;;;;;;7.15;2.87;;;1.30;99.90;;;;;;7336425;32;20695;-57
2024/01/27 18:24:57;;;;;;;6.07;2.70;;;1.20;99.90;;;;;;7338824;32;20130;-56
2024/01/27 18:28:59;;;;;;;7.43;2.95;;;1.20;99.90;;;;;;7341588;32;20121;-55
2024/01/27 18:33:00;;;;;;;13.82;3.47;;;1.10;99.90;;;;;;7329754;32;20136;-57
2024/01/27 18:37:06;;;;;;;9.63;2.90;;;1.10;99.90;;;;;;7340024;32;20238;-57
2024/01/27 18:41:08;;;;;;;6.87;2.58;;;1.00;99.90;;;;;;7343586;32;20103;-57
2024/01/27 18:45:10;;;;;;;6.55;2.40;;;1.10;99.90;;;;;;7336197;32;20126;-57
2024/01/27 18:49:14;;;;;;;9.20;3.03;;;1.10;99.90;;;;;;7343339;32;20169;-57
2024/01/27 18:53:16;;;;;;;12.27;3.20;;;1.00;99.90;;;;;;7347104;32;20488;-57
2024/01/27 18:57:18;;;;;;;7.72;2.90;;;1.00;99.90;;;;;;7343345;32;20764;-57
2024/01/27 19:01:19;;;;;;;9.05;3.15;;;1.00;99.90;;;;;;7335215;32;20220;-57
2024/01/27 19:05:21;;;;;;;11.65;3.42;;;1.00;99.90;;;;;;7333929;32;20293;-56
2024/01/27 19:09:23;;;;;;;9.15;3.22;;;0.90;99.90;;;;;;7337958;32;20279;-57
2024/01/27 19:13:25;;;;;;;13.25;4.22;;;1.00;99.90;;;;;;7343625;32;20480;-58
2024/01/27 19:17:27;;;;;;;14.68;5.15;;;1.00;99.90;;;;;;7344366;32;20200;-58
2024/01/27 19:21:28;;;;;;;37.05;17.40;;;0.90;99.90;;;;;;7342988;32;20151;-55
2024/01/27 19:25:30;;;;;;;10.82;5.25;;;0.90;99.90;;;;;;7343104;32;20663;-56
2024/01/27 19:29:32;;;;;;;10.15;4.78;;;0.90;99.90;;;;;;7348786;32;20111;-57
2024/01/27 19:33:35;;;;;;;11.35;5.22;;;0.90;99.90;;;;;;7346433;32;20231;-56
2024/01/27 19:37:38;;;;;;;9.40;5.20;;;0.80;99.90;;;;;;7347430;32;20135;-59
2024/01/27 19:41:40;;;;;;;14.77;5.75;;;0.80;99.90;;;;;;7342895;32;20108;-57
2024/01/27 19:45:41;;;;;;;13.50;6.22;;;0.80;99.90;;;;;;7336638;32;20471;-58
2024/01/27 19:49:43;;;;;;;14.25;6.75;;;0.70;99.90;;;;;;7352179;32;20545;-58
2024/01/27 19:53:45;;;;;;;15.07;6.75;;;0.70;99.90;;;;;;7343666;32;20624;-60
2024/01/27 19:57:47;;;;;;;13.85;6.65;;;0.60;99.90;;;;;;7345125;32;20228;-59
2024/01/27 20:01:49;;;;;;;11.93;5.40;;;0.60;99.90;;;;;;7337037;32;20258;-58
2024/01/27 20:05:50;;;;;;;45.80;23.20;;;0.50;99.90;;;;;;7339549;32;20131;-58
2024/01/27 20:09:52;;;;;;;18.98;8.20;;;0.50;99.90;;;;;;7344834;32;20111;-58
2024/01/27 20:13:56;;;;;;;12.73;6.68;;;0.50;99.90;;;;;;7347138;32;20932;-58
2024/01/27 20:17:58;;;;;;;12.95;5.72;;;0.40;99.90;;;;;;7348523;32;20128;-59
2024/01/27 20:22:01;;;;;;;10.35;5.47;;;0.30;99.90;;;;;;7344101;32;20503;-58
2024/01/27 20:26:03;;;;;;;12.88;5.50;;;0.30;99.90;;;;;;7347123;32;20261;-58
2024/01/27 20:30:06;;;;;;;9.73;5.32;;;0.20;99.90;;;;;;7346857;32;20182;-58
2024/01/27 20:34:08;;;;;;;13.93;5.80;;;0.20;99.90;;;;;;7340236;32;20580;-59
2024/01/27 20:38:10;;;;;;;14.27;4.37;;;0.10;99.90;;;;;;7340026;32;20111;-58
2024/01/27 20:42:13;;;;;;;14.02;3.70;;;0.20;99.90;;;;;;7341892;32;20121;-60
2024/01/27 20:46:15;;;;;;;9.40;4.00;;;0.10;99.90;;;;;;7331414;32;20123;-59
2024/01/27 20:50:17;;;;;;;9.68;4.57;;;0.10;99.90;;;;;;7337156;32;20266;-59
2024/01/27 20:54:19;;;;;;;10.32;4.47;;;0.10;99.90;;;;;;7341382;32;20166;-58
2024/01/27 20:58:20;;;;;;;13.95;5.20;;;0.10;99.90;;;;;;7346579;32;20218;-59
2024/01/27 21:02:22;;;;;;;12.68;5.45;;;0.10;99.90;;;;;;7339099;32;20305;-59